createdAt,value
2024-05-09T00:00:00.874Z,95686.00
2024-05-09T00:01:00.924Z,95684.00
2024-05-09T00:02:00.917Z,95686.00
2024-05-09T00:03:00.932Z,95684.00
2024-05-09T00:04:00.994Z,95685.00
2024-05-09T00:05:00.991Z,95683.00
2024-05-09T00:06:01.041Z,95683.00
2024-05-09T00:07:00.882Z,95682.00
2024-05-09T00:08:01.135Z,95682.00
2024-05-09T00:09:00.885Z,95681.00
2024-05-09T00:10:00.905Z,95681.00
2024-05-09T00:11:00.962Z,95680.00
2024-05-09T00:12:01.071Z,95681.00
2024-05-09T00:13:00.886Z,95680.00
2024-05-09T00:14:00.995Z,95680.00
2024-05-09T00:15:00.892Z,95681.00
2024-05-09T00:16:00.904Z,95681.00
2024-05-09T00:17:00.975Z,95681.00
2024-05-09T00:18:01.414Z,95681.00
2024-05-09T00:19:00.966Z,95680.00
2024-05-09T00:20:00.938Z,95680.00
2024-05-09T00:21:01.059Z,95683.00
2024-05-09T00:22:00.925Z,95681.00
2024-05-09T00:23:00.897Z,95681.00
2024-05-09T00:24:00.908Z,95682.00
2024-05-09T00:25:00.897Z,95683.00
2024-05-09T00:26:00.932Z,95685.00
2024-05-09T00:27:00.936Z,95685.00
2024-05-09T00:28:01.641Z,95684.00
2024-05-09T00:29:00.921Z,95681.00
2024-05-09T00:30:00.886Z,95682.00
2024-05-09T00:31:00.889Z,95682.00
2024-05-09T00:32:01.091Z,95679.00
2024-05-09T00:33:01.100Z,95680.00
2024-05-09T00:34:01.353Z,95676.00
2024-05-09T00:35:01.025Z,95675.00
2024-05-09T00:36:00.954Z,95674.00
2024-05-09T00:37:00.969Z,95674.00
2024-05-09T00:38:01.320Z,95672.00
2024-05-09T00:39:00.902Z,95672.00
2024-05-09T00:40:00.927Z,95670.00
2024-05-09T00:41:01.058Z,95670.00
2024-05-09T00:42:00.934Z,95668.00
2024-05-09T00:43:00.929Z,95668.00
2024-05-09T00:44:00.961Z,95666.00
2024-05-09T00:45:00.925Z,95667.00
2024-05-09T00:46:00.934Z,95667.00
2024-05-09T00:47:01.088Z,95665.00
2024-05-09T00:48:01.452Z,95667.00
2024-05-09T00:49:01.283Z,95665.00
2024-05-09T00:50:01.181Z,95663.00
2024-05-09T00:51:01.268Z,95663.00
2024-05-09T00:52:01.230Z,95662.00
2024-05-09T00:53:01.280Z,95658.00
2024-05-09T00:54:01.279Z,95655.00
2024-05-09T00:55:01.279Z,95656.00
2024-05-09T00:56:01.319Z,95652.00
2024-05-09T00:57:01.334Z,95647.00
2024-05-09T00:58:01.347Z,95649.00
2024-05-09T00:59:01.493Z,95648.00
2024-05-09T01:00:01.433Z,95647.00
2024-05-09T01:01:01.540Z,95644.00
2024-05-09T01:02:01.628Z,95644.00
2024-05-09T01:03:01.715Z,95642.00
2024-05-09T01:04:01.618Z,95641.00
2024-05-09T01:05:01.685Z,95640.00
2024-05-09T01:06:01.638Z,95636.00
2024-05-09T01:07:01.614Z,95636.00
2024-05-09T01:08:01.799Z,95634.00
2024-05-09T01:09:01.672Z,95636.00
2024-05-09T01:10:01.728Z,95635.00
2024-05-09T01:11:01.949Z,95635.00
2024-05-09T01:12:01.928Z,95632.00
2024-05-09T01:13:01.874Z,95634.00
2024-05-09T01:14:01.915Z,95634.00
2024-05-09T01:15:01.885Z,95633.00
2024-05-09T01:16:01.939Z,95633.00
2024-05-09T01:17:02.034Z,95634.00
2024-05-09T01:18:02.448Z,95633.00
2024-05-09T01:19:02.161Z,95635.00
2024-05-09T01:20:02.266Z,95636.00
2024-05-09T01:21:02.196Z,95636.00
2024-05-09T01:22:02.217Z,95635.00
2024-05-09T01:23:02.330Z,95635.00
2024-05-09T01:24:02.233Z,95636.00
2024-05-09T01:25:02.287Z,95637.00
2024-05-09T01:26:02.357Z,95638.00
2024-05-09T01:27:02.353Z,95640.00
2024-05-09T01:28:02.417Z,95639.00
2024-05-09T01:29:02.426Z,95639.00
2024-05-09T01:30:04.016Z,95636.00
2024-05-09T01:31:04.218Z,95638.00
2024-05-09T01:32:02.558Z,95638.00
2024-05-09T01:33:02.624Z,95641.00
2024-05-09T01:34:02.474Z,95641.00
2024-05-09T01:35:02.531Z,95641.00
2024-05-09T01:36:02.443Z,95643.00
2024-05-09T01:37:02.492Z,95642.00
2024-05-09T01:38:02.629Z,95640.00
2024-05-09T01:39:02.455Z,95640.00
2024-05-09T01:40:02.463Z,95641.00
2024-05-09T01:41:02.520Z,95639.00
2024-05-09T01:42:02.471Z,95639.00
2024-05-09T01:43:02.473Z,95639.00
2024-05-09T01:44:02.495Z,95639.00
2024-05-09T01:45:02.456Z,95638.00
2024-05-09T01:46:02.501Z,95637.00
2024-05-09T01:47:02.592Z,95636.00
2024-05-09T01:48:03.001Z,95637.00
2024-05-09T01:49:02.621Z,95636.00
2024-05-09T01:50:03.317Z,95638.00
2024-05-09T01:51:02.626Z,95637.00
2024-05-09T01:52:02.642Z,95637.00
2024-05-09T01:53:02.710Z,95638.00
2024-05-09T01:54:02.634Z,95636.00
2024-05-09T01:55:05.839Z,95640.00
2024-05-09T01:56:02.708Z,95641.00
2024-05-09T01:57:02.671Z,95639.00
2024-05-09T01:58:02.665Z,95635.00
2024-05-09T01:59:02.675Z,95635.00
2024-05-09T02:00:02.999Z,95639.00
2024-05-09T02:01:02.697Z,95640.00
2024-05-09T02:02:02.834Z,95639.00
2024-05-09T02:03:02.908Z,95638.00
2024-05-09T02:04:02.993Z,95636.00
2024-05-09T02:05:02.829Z,95637.00
2024-05-09T02:06:02.831Z,95635.00
2024-05-09T02:07:02.671Z,95636.00
2024-05-09T02:08:02.762Z,95634.00
2024-05-09T02:09:02.692Z,95637.00
2024-05-09T02:10:06.483Z,95634.00
2024-05-09T02:11:03.727Z,95635.00
2024-05-09T02:12:02.842Z,95632.00
2024-05-09T02:13:02.721Z,95636.00
2024-05-09T02:14:02.777Z,95634.00
2024-05-09T02:15:02.687Z,95633.00
2024-05-09T02:16:02.678Z,95632.00
2024-05-09T02:17:02.747Z,95634.00
2024-05-09T02:18:02.806Z,95633.00
2024-05-09T02:19:02.781Z,95633.00
2024-05-09T02:20:02.910Z,95633.00
2024-05-09T02:21:02.802Z,95633.00
2024-05-09T02:22:02.714Z,95635.00
2024-05-09T02:23:02.975Z,95635.00
2024-05-09T02:24:02.778Z,95634.00
2024-05-09T02:25:02.804Z,95634.00
2024-05-09T02:26:02.892Z,95632.00
2024-05-09T02:27:02.867Z,95632.00
2024-05-09T02:28:02.982Z,95633.00
2024-05-09T02:29:03.005Z,95633.00
2024-05-09T02:30:04.674Z,95632.00
2024-05-09T02:31:03.040Z,95631.00
2024-05-09T02:32:03.781Z,95628.00
2024-05-09T02:33:03.266Z,95629.00
2024-05-09T02:34:03.348Z,95630.00
2024-05-09T02:35:03.210Z,95625.00
2024-05-09T02:36:03.103Z,95626.00
2024-05-09T02:37:03.155Z,95624.00
2024-05-09T02:38:03.327Z,95623.00
2024-05-09T02:39:03.094Z,95625.00
2024-05-09T02:40:03.475Z,95625.00
2024-05-09T02:41:03.081Z,95624.00
2024-05-09T02:42:03.087Z,95626.00
2024-05-09T02:43:03.078Z,95626.00
2024-05-09T02:44:03.142Z,95626.00
2024-05-09T02:45:03.079Z,95623.00
2024-05-09T02:46:03.079Z,95623.00
2024-05-09T02:47:03.078Z,95623.00
2024-05-09T02:48:03.432Z,95624.00
2024-05-09T02:49:03.163Z,95624.00
2024-05-09T02:50:04.633Z,95624.00
2024-05-09T02:51:03.267Z,95623.00
2024-05-09T02:52:03.150Z,95622.00
2024-05-09T02:53:03.167Z,95624.00
2024-05-09T02:54:03.134Z,95625.00
2024-05-09T02:55:03.254Z,95626.00
2024-05-09T02:56:03.180Z,95623.00
2024-05-09T02:57:03.150Z,95622.00
2024-05-09T02:58:03.154Z,95625.00
2024-05-09T02:59:03.231Z,95627.00
2024-05-09T03:00:06.200Z,95623.00
2024-05-09T03:01:03.237Z,95623.00
2024-05-09T03:02:03.273Z,95624.00
2024-05-09T03:03:03.334Z,95622.00
2024-05-09T03:04:03.305Z,95624.00
2024-05-09T03:05:03.202Z,95623.00
2024-05-09T03:06:03.176Z,95622.00
2024-05-09T03:07:03.169Z,95621.00
2024-05-09T03:08:03.248Z,95621.00
2024-05-09T03:09:03.131Z,95618.00
2024-05-09T03:10:03.488Z,95620.00
2024-05-09T03:11:03.189Z,95620.00
2024-05-09T03:12:03.462Z,95623.00
2024-05-09T03:13:03.200Z,95617.00
2024-05-09T03:14:03.196Z,95619.00
2024-05-09T03:15:03.192Z,95621.00
2024-05-09T03:16:03.178Z,95618.00
2024-05-09T03:17:03.279Z,95621.00
2024-05-09T03:18:03.608Z,95621.00
2024-05-09T03:19:03.256Z,95619.00
2024-05-09T03:20:05.121Z,95621.00
2024-05-09T03:21:03.338Z,95622.00
2024-05-09T03:22:03.175Z,95622.00
2024-05-09T03:23:03.733Z,95625.00
2024-05-09T03:24:03.191Z,95623.00
2024-05-09T03:25:03.203Z,95623.00
2024-05-09T03:26:03.232Z,95624.00
2024-05-09T03:27:03.197Z,95629.00
2024-05-09T03:28:03.220Z,95628.00
2024-05-09T03:29:03.312Z,95628.00
2024-05-09T03:30:05.497Z,95629.00
2024-05-09T03:31:03.189Z,95627.00
2024-05-09T03:32:03.361Z,95627.00
2024-05-09T03:33:04.404Z,95628.00
2024-05-09T03:34:03.451Z,95626.00
2024-05-09T03:35:03.257Z,95626.00
2024-05-09T03:36:03.219Z,95625.00
2024-05-09T03:37:03.254Z,95624.00
2024-05-09T03:38:03.357Z,95624.00
2024-05-09T03:39:03.203Z,95626.00
2024-05-09T03:40:05.604Z,95627.00
2024-05-09T03:41:03.264Z,95626.00
2024-05-09T03:42:03.245Z,95628.00
2024-05-09T03:43:03.264Z,95627.00
2024-05-09T03:44:03.245Z,95627.00
2024-05-09T03:45:03.203Z,95628.00
2024-05-09T03:46:03.227Z,95628.00
2024-05-09T03:47:03.247Z,95627.00
2024-05-09T03:48:03.425Z,95625.00
2024-05-09T03:49:03.361Z,95625.00
2024-05-09T03:50:05.639Z,95626.00
2024-05-09T03:51:03.434Z,95627.00
2024-05-09T03:52:03.467Z,95627.00
2024-05-09T03:53:03.615Z,95627.00
2024-05-09T03:54:03.549Z,95629.00
2024-05-09T03:55:03.592Z,95633.00
2024-05-09T03:56:03.694Z,95634.00
2024-05-09T03:57:03.721Z,95636.00
2024-05-09T03:58:03.762Z,95640.00
2024-05-09T03:59:03.944Z,95641.00
2024-05-09T04:00:05.500Z,95641.00
2024-05-09T04:01:03.832Z,95642.00
2024-05-09T04:02:04.054Z,95643.00
2024-05-09T04:03:04.328Z,95644.00
2024-05-09T04:04:03.978Z,95645.00
2024-05-09T04:05:03.982Z,95645.00
2024-05-09T04:06:03.997Z,95644.00
2024-05-09T04:07:04.038Z,95647.00
2024-05-09T04:08:04.157Z,95646.00
2024-05-09T04:09:04.189Z,95648.00
2024-05-09T04:10:05.412Z,95650.00
2024-05-09T04:11:04.350Z,95649.00
2024-05-09T04:12:04.251Z,95650.00
2024-05-09T04:13:04.531Z,95651.00
2024-05-09T04:14:04.214Z,95654.00
2024-05-09T04:15:04.163Z,95651.00
2024-05-09T04:16:04.196Z,95650.00
2024-05-09T04:17:04.211Z,95652.00
2024-05-09T04:18:04.354Z,95652.00
2024-05-09T04:19:04.267Z,95651.00
2024-05-09T04:20:05.145Z,95649.00
2024-05-09T04:21:04.808Z,95651.00
2024-05-09T04:22:04.170Z,95653.00
2024-05-09T04:23:04.255Z,95652.00
2024-05-09T04:24:04.186Z,95649.00
2024-05-09T04:25:04.229Z,95651.00
2024-05-09T04:26:04.342Z,95653.00
2024-05-09T04:27:04.277Z,95651.00
2024-05-09T04:28:04.355Z,95656.00
2024-05-09T04:29:04.408Z,95656.00
2024-05-09T04:30:06.165Z,95658.00
2024-05-09T04:31:04.336Z,95659.00
2024-05-09T04:32:04.427Z,95658.00
2024-05-09T04:33:04.574Z,95658.00
2024-05-09T04:34:04.665Z,95658.00
2024-05-09T04:35:04.449Z,95657.00
2024-05-09T04:36:04.502Z,95657.00
2024-05-09T04:37:04.315Z,95656.00
2024-05-09T04:38:04.480Z,95659.00
2024-05-09T04:39:04.369Z,95657.00
2024-05-09T04:40:06.997Z,95657.00
2024-05-09T04:41:04.414Z,95659.00
2024-05-09T04:42:04.356Z,95659.00
2024-05-09T04:43:04.391Z,95657.00
2024-05-09T04:44:12.277Z,95659.00
2024-05-09T04:45:12.186Z,95659.00
2024-05-09T04:46:12.217Z,95659.00
2024-05-09T04:47:12.351Z,95657.00
2024-05-09T04:48:12.494Z,95659.00
2024-05-09T04:49:12.353Z,95657.00
2024-05-09T04:50:20.996Z,95660.00
2024-05-09T04:51:13.319Z,95663.00
2024-05-09T04:52:12.251Z,95663.00
2024-05-09T04:53:12.339Z,95664.00
2024-05-09T04:54:25.757Z,95667.00
2024-05-09T04:55:13.299Z,95669.00
2024-05-09T04:56:12.338Z,95669.00
2024-05-09T04:57:12.282Z,95669.00
2024-05-09T04:58:12.362Z,95670.00
2024-05-09T04:59:12.370Z,95671.00
2024-05-09T05:00:14.976Z,95666.00
2024-05-09T05:01:13.324Z,95670.00
2024-05-09T05:02:12.341Z,95671.00
2024-05-09T05:03:14.872Z,95674.00
2024-05-09T05:04:12.375Z,95672.00
2024-05-09T05:05:12.438Z,95671.00
2024-05-09T05:06:12.284Z,95673.00
2024-05-09T05:07:12.290Z,95672.00
2024-05-09T05:08:12.765Z,95673.00
2024-05-09T05:09:12.291Z,95672.00
2024-05-09T05:10:21.325Z,95669.00
2024-05-09T05:11:13.518Z,95669.00
2024-05-09T05:12:12.532Z,95669.00
2024-05-09T05:13:12.317Z,95669.00
2024-05-09T05:14:12.338Z,95674.00
2024-05-09T05:15:12.301Z,95671.00
2024-05-09T05:16:12.292Z,95674.00
2024-05-09T05:17:12.347Z,95673.00
2024-05-09T05:18:12.421Z,95675.00
2024-05-09T05:19:16.017Z,95676.00
2024-05-09T05:20:17.852Z,95677.00
2024-05-09T05:21:13.373Z,95677.00
2024-05-09T05:22:12.300Z,95678.00
2024-05-09T05:23:12.464Z,95677.00
2024-05-09T05:24:12.314Z,95678.00
2024-05-09T05:25:12.328Z,95676.00
2024-05-09T05:26:12.444Z,95677.00
2024-05-09T05:27:12.330Z,95674.00
2024-05-09T05:28:12.319Z,95676.00
2024-05-09T05:29:12.468Z,95673.00
2024-05-09T05:31:12.351Z,95675.00
2024-05-09T05:32:12.516Z,95677.00
2024-05-09T05:33:12.688Z,95679.00
2024-05-09T05:34:12.409Z,95677.00
2024-05-09T05:35:12.488Z,95682.00
2024-05-09T05:36:12.572Z,95682.00
2024-05-09T05:37:12.542Z,95682.00
2024-05-09T05:38:12.586Z,95681.00
2024-05-09T05:39:12.572Z,95681.00
2024-05-09T05:40:20.927Z,95681.00
2024-05-09T05:41:13.664Z,95682.00
2024-05-09T05:42:12.587Z,95684.00
2024-05-09T05:43:12.626Z,95683.00
2024-05-09T05:44:12.618Z,95681.00
2024-05-09T05:45:12.597Z,95684.00
2024-05-09T05:46:12.608Z,95685.00
2024-05-09T05:47:12.734Z,95685.00
2024-05-09T05:48:12.863Z,95686.00
2024-05-09T05:49:12.842Z,95686.00
2024-05-09T05:50:23.634Z,95686.00
2024-05-09T05:51:13.869Z,95685.00
2024-05-09T05:52:12.628Z,95687.00
2024-05-09T05:53:12.677Z,95681.00
2024-05-09T05:54:12.606Z,95684.00
2024-05-09T05:55:12.636Z,95685.00
2024-05-09T05:56:12.690Z,95682.00
2024-05-09T05:57:12.616Z,95684.00
2024-05-09T05:58:12.752Z,95684.00
2024-05-09T05:59:15.045Z,95681.00
2024-05-09T06:01:12.691Z,95684.00
2024-05-09T06:02:12.767Z,95679.00
2024-05-09T06:03:13.311Z,95681.00
2024-05-09T06:04:12.770Z,95678.00
2024-05-09T06:05:12.797Z,95679.00
2024-05-09T06:06:12.756Z,95679.00
2024-05-09T06:07:12.743Z,95679.00
2024-05-09T06:08:12.971Z,95680.00
2024-05-09T06:09:12.872Z,95679.00
2024-05-09T06:10:17.645Z,95676.00
2024-05-09T06:11:14.035Z,95674.00
2024-05-09T06:12:13.011Z,95676.00
2024-05-09T06:13:13.572Z,95675.00
2024-05-09T06:14:12.979Z,95674.00
2024-05-09T06:15:12.911Z,95672.00
2024-05-09T06:16:12.856Z,95675.00
2024-05-09T06:17:12.945Z,95675.00
2024-05-09T06:18:13.281Z,95674.00
2024-05-09T06:19:13.004Z,95677.00
2024-05-09T06:20:20.090Z,95680.00
2024-05-09T06:21:14.250Z,95678.00
2024-05-09T06:22:12.903Z,95676.00
2024-05-09T06:23:13.319Z,95675.00
2024-05-09T06:24:12.907Z,95673.00
2024-05-09T06:25:12.874Z,95674.00
2024-05-09T06:26:12.963Z,95674.00
2024-05-09T06:27:12.918Z,95670.00
2024-05-09T06:28:12.950Z,95670.00
2024-05-09T06:29:12.908Z,95673.00
2024-05-09T06:30:24.869Z,95671.00
2024-05-09T06:31:13.936Z,95668.00
2024-05-09T06:32:13.017Z,95665.00
2024-05-09T06:33:14.946Z,95665.00
2024-05-09T06:34:12.983Z,95670.00
2024-05-09T06:35:12.994Z,95667.00
2024-05-09T06:36:12.938Z,95667.00
2024-05-09T06:37:12.902Z,95667.00
2024-05-09T06:38:13.054Z,95664.00
2024-05-09T06:39:12.911Z,95664.00
2024-05-09T06:40:17.374Z,95661.00
2024-05-09T06:41:13.005Z,95664.00
2024-05-09T06:42:12.933Z,95663.00
2024-05-09T06:43:13.056Z,95658.00
2024-05-09T06:44:13.025Z,95663.00
2024-05-09T06:45:12.981Z,95662.00
2024-05-09T06:46:12.956Z,95664.00
2024-05-09T06:47:13.076Z,95663.00
2024-05-09T06:48:13.199Z,95665.00
2024-05-09T06:49:13.082Z,95663.00
2024-05-09T06:50:20.357Z,95663.00
2024-05-09T06:51:14.081Z,95665.00
2024-05-09T06:52:12.942Z,95666.00
2024-05-09T06:53:13.020Z,95668.00
2024-05-09T06:54:12.957Z,95670.00
2024-05-09T06:55:12.968Z,95668.00
2024-05-09T06:56:13.010Z,95668.00
2024-05-09T06:57:12.969Z,95668.00
2024-05-09T06:58:13.020Z,95666.00
2024-05-09T06:59:12.978Z,95663.00
2024-05-09T07:00:19.101Z,95664.00
2024-05-09T07:01:14.043Z,95661.00
2024-05-09T07:02:13.024Z,95661.00
2024-05-09T07:03:15.277Z,95662.00
2024-05-09T07:04:13.116Z,95659.00
2024-05-09T07:05:13.107Z,95661.00
2024-05-09T07:06:13.024Z,95663.00
2024-05-09T07:07:12.967Z,95662.00
2024-05-09T07:08:13.149Z,95666.00
2024-05-09T07:09:12.983Z,95665.00
2024-05-09T07:10:21.513Z,95668.00
2024-05-09T07:11:14.150Z,95668.00
2024-05-09T07:12:13.073Z,95666.00
2024-05-09T07:13:13.232Z,95666.00
2024-05-09T07:14:13.020Z,95666.00
2024-05-09T07:15:13.010Z,95664.00
2024-05-09T07:16:13.018Z,95664.00
2024-05-09T07:17:13.067Z,95664.00
2024-05-09T07:18:13.698Z,95662.00
2024-05-09T07:19:13.292Z,95661.00
2024-05-09T07:20:19.964Z,95661.00
2024-05-09T07:21:14.121Z,95658.00
2024-05-09T07:22:13.024Z,95654.00
2024-05-09T07:23:13.278Z,95654.00
2024-05-09T07:24:12.993Z,95654.00
2024-05-09T07:25:13.026Z,95652.00
2024-05-09T07:26:13.077Z,95649.00
2024-05-09T07:27:13.001Z,95647.00
2024-05-09T07:28:13.042Z,95649.00
2024-05-09T07:29:13.031Z,95649.00
2024-05-09T07:30:19.908Z,95651.00
2024-05-09T07:31:14.029Z,95654.00
2024-05-09T07:32:13.079Z,95648.00
2024-05-09T07:33:13.142Z,95642.00
2024-05-09T07:34:13.140Z,95643.00
2024-05-09T07:35:13.057Z,95643.00
2024-05-09T07:36:13.045Z,95643.00
2024-05-09T07:37:13.034Z,95646.00
2024-05-09T07:38:13.132Z,95647.00
2024-05-09T07:39:13.346Z,95646.00
2024-05-09T07:40:21.261Z,95648.00
2024-05-09T07:41:14.119Z,95649.00
2024-05-09T07:42:13.085Z,95645.00
2024-05-09T07:43:13.307Z,95644.00
2024-05-09T07:44:13.101Z,95642.00
2024-05-09T07:47:14.094Z,95643.00
2024-05-09T07:48:28.860Z,95638.00
2024-05-09T07:49:44.847Z,95635.00
2024-05-09T07:53:29.304Z,95634.00
2024-05-09T07:53:37.498Z,95631.00
2024-05-09T07:54:14.192Z,95630.00
2024-05-09T07:55:13.256Z,95629.00
2024-05-09T07:56:13.832Z,95632.00
2024-05-09T07:57:13.131Z,95628.00
2024-05-09T07:58:13.083Z,95632.00
2024-05-09T07:59:13.107Z,95630.00
2024-05-09T08:00:17.318Z,95631.00
2024-05-09T08:01:14.210Z,95628.00
2024-05-09T08:02:13.466Z,95629.00
2024-05-09T08:03:13.132Z,95629.00
2024-05-09T08:04:13.170Z,95630.00
2024-05-09T08:05:13.344Z,95628.00
2024-05-09T08:06:13.109Z,95630.00
2024-05-09T08:07:13.199Z,95635.00
2024-05-09T08:08:13.108Z,95634.00
2024-05-09T08:09:16.935Z,95627.00
2024-05-09T08:10:18.721Z,95626.00
2024-05-09T08:11:14.150Z,95628.00
2024-05-09T08:12:13.086Z,95626.00
2024-05-09T08:13:13.146Z,95624.00
2024-05-09T08:14:13.088Z,95627.00
2024-05-09T08:15:13.105Z,95620.00
2024-05-09T08:16:13.143Z,95625.00
2024-05-09T08:17:13.105Z,95621.00
2024-05-09T08:18:13.299Z,95625.00
2024-05-09T08:19:13.284Z,95621.00
2024-05-09T08:21:13.130Z,95624.00
2024-05-09T08:22:13.197Z,95624.00
2024-05-09T08:23:13.106Z,95620.00
2024-05-09T08:24:13.117Z,95618.00
2024-05-09T08:25:14.114Z,95620.00
2024-05-09T08:26:13.132Z,95620.00
2024-05-09T08:27:13.142Z,95617.00
2024-05-09T08:28:13.303Z,95616.00
2024-05-09T08:29:13.122Z,95619.00
2024-05-09T08:30:21.578Z,95616.00
2024-05-09T08:31:14.211Z,95615.00
2024-05-09T08:32:13.154Z,95614.00
2024-05-09T08:33:13.189Z,95616.00
2024-05-09T08:34:13.234Z,95616.00
2024-05-09T08:35:13.108Z,95613.00
2024-05-09T08:36:13.120Z,95611.00
2024-05-09T08:37:19.706Z,95612.00
2024-05-09T08:38:14.216Z,95613.00
2024-05-09T08:39:13.134Z,95616.00
2024-05-09T08:40:19.843Z,95616.00
2024-05-09T08:41:14.164Z,95618.00
2024-05-09T08:42:13.151Z,95619.00
2024-05-09T08:43:13.398Z,95611.00
2024-05-09T08:44:13.145Z,95615.00
2024-05-09T08:45:13.148Z,95614.00
2024-05-09T08:46:13.310Z,95611.00
2024-05-09T08:47:13.162Z,95609.00
2024-05-09T08:48:13.677Z,95611.00
2024-05-09T08:49:13.237Z,95611.00
2024-05-09T08:50:23.560Z,95613.00
2024-05-09T08:51:14.199Z,95607.00
2024-05-09T08:52:13.160Z,95608.00
2024-05-09T08:53:13.162Z,95606.00
2024-05-09T08:54:13.145Z,95608.00
2024-05-09T08:55:13.212Z,95610.00
2024-05-09T08:56:14.211Z,95611.00
2024-05-09T08:57:13.163Z,95611.00
2024-05-09T08:58:13.345Z,95602.00
2024-05-09T08:59:13.138Z,95601.00
2024-05-09T09:00:18.022Z,95600.00
2024-05-09T09:01:14.209Z,95601.00
2024-05-09T09:02:13.423Z,95603.00
2024-05-09T09:03:13.172Z,95603.00
2024-05-09T09:04:13.373Z,95598.00
2024-05-09T09:05:13.265Z,95600.00
2024-05-09T09:06:13.129Z,95600.00
2024-05-09T09:07:13.300Z,95595.00
2024-05-09T09:08:13.187Z,95606.00
2024-05-09T09:09:13.166Z,95601.00
2024-05-09T09:11:13.166Z,95597.00
2024-05-09T09:12:13.162Z,95599.00
2024-05-09T09:13:13.256Z,95600.00
2024-05-09T09:14:13.230Z,95591.00
2024-05-09T09:15:13.239Z,95593.00
2024-05-09T09:16:13.316Z,95590.00
2024-05-09T09:17:13.305Z,95590.00
2024-05-09T09:18:13.460Z,95589.00
2024-05-09T09:19:13.493Z,95587.00
2024-05-09T09:20:16.608Z,95587.00
2024-05-09T09:21:14.419Z,95585.00
2024-05-09T09:22:13.476Z,95594.00
2024-05-09T09:23:13.878Z,95586.00
2024-05-09T09:24:13.412Z,95583.00
2024-05-09T09:25:13.448Z,95584.00
2024-05-09T09:26:13.469Z,95583.00
2024-05-09T09:27:13.425Z,95579.00
2024-05-09T09:28:13.643Z,95580.00
2024-05-09T09:29:13.449Z,95577.00
2024-05-09T09:30:27.656Z,95575.00
2024-05-09T09:31:14.481Z,95580.00
2024-05-09T09:32:13.424Z,95580.00
2024-05-09T09:33:13.628Z,95580.00
2024-05-09T09:34:13.531Z,95577.00
2024-05-09T09:35:13.434Z,95576.00
2024-05-09T09:36:13.512Z,95574.00
2024-05-09T09:37:13.464Z,95577.00
2024-05-09T09:38:13.452Z,95572.00
2024-05-09T09:39:13.447Z,95569.00
2024-05-09T09:40:15.430Z,95571.00
2024-05-09T09:41:13.496Z,95570.00
2024-05-09T09:42:13.432Z,95569.00
2024-05-09T09:43:13.753Z,95568.00
2024-05-09T09:44:13.426Z,95560.00
2024-05-09T09:45:13.447Z,95555.00
2024-05-09T09:46:13.608Z,95555.00
2024-05-09T09:47:13.610Z,95555.00
2024-05-09T09:48:13.708Z,95553.00
2024-05-09T09:49:16.864Z,95554.00
2024-05-09T09:50:16.994Z,95556.00
2024-05-09T09:51:14.651Z,95554.00
2024-05-09T09:52:13.881Z,95553.00
2024-05-09T09:53:13.719Z,95548.00
2024-05-09T09:54:13.653Z,95547.00
2024-05-09T09:55:13.883Z,95546.00
2024-05-09T09:56:13.672Z,95545.00
2024-05-09T09:57:13.664Z,95547.00
2024-05-09T09:58:14.535Z,95546.00
2024-05-09T09:59:13.679Z,95546.00
2024-05-09T10:00:17.435Z,95551.00
2024-05-09T10:01:14.789Z,95548.00
2024-05-09T10:02:13.856Z,95541.00
2024-05-09T10:03:13.784Z,95543.00
2024-05-09T10:04:13.729Z,95543.00
2024-05-09T10:05:13.810Z,95543.00
2024-05-09T10:06:13.703Z,95537.00
2024-05-09T10:07:13.863Z,95533.00
2024-05-09T10:08:13.696Z,95533.00
2024-05-09T10:09:13.726Z,95530.00
2024-05-09T10:10:16.357Z,95530.00
2024-05-09T10:11:14.718Z,95532.00
2024-05-09T10:12:13.730Z,95529.00
2024-05-09T10:13:13.823Z,95526.00
2024-05-09T10:14:13.697Z,95523.00
2024-05-09T10:15:13.681Z,95517.00
2024-05-09T10:16:13.758Z,95516.00
2024-05-09T10:17:13.716Z,95511.00
2024-05-09T10:18:13.998Z,95512.00
2024-05-09T10:19:13.827Z,95504.00
2024-05-09T10:20:21.351Z,95504.00
2024-05-09T10:21:14.760Z,95507.00
2024-05-09T10:22:13.759Z,95509.00
2024-05-09T10:23:13.748Z,95512.00
2024-05-09T10:24:13.715Z,95504.00
2024-05-09T10:25:13.828Z,95507.00
2024-05-09T10:26:13.708Z,95504.00
2024-05-09T10:27:13.722Z,95503.00
2024-05-09T10:28:13.830Z,95503.00
2024-05-09T10:29:13.714Z,95496.00
2024-05-09T10:30:21.261Z,95497.00
2024-05-09T10:31:14.843Z,95496.00
2024-05-09T10:32:13.749Z,95497.00
2024-05-09T10:33:13.885Z,95502.00
2024-05-09T10:34:13.943Z,95501.00
2024-05-09T10:35:13.756Z,95501.00
2024-05-09T10:36:13.741Z,95500.00
2024-05-09T10:37:13.802Z,95494.00
2024-05-09T10:38:13.762Z,95498.00
2024-05-09T10:39:13.750Z,95495.00
2024-05-09T10:40:20.299Z,95494.00
2024-05-09T10:41:14.763Z,95495.00
2024-05-09T10:42:13.745Z,95493.00
2024-05-09T10:43:13.843Z,95492.00
2024-05-09T10:44:13.736Z,95489.00
2024-05-09T10:45:13.732Z,95482.00
2024-05-09T10:46:13.866Z,95488.00
2024-05-09T10:47:13.810Z,95487.00
2024-05-09T10:48:14.399Z,95482.00
2024-05-09T10:49:13.852Z,95482.00
2024-05-09T10:51:13.765Z,95477.00
2024-05-09T10:52:13.751Z,95473.00
2024-05-09T10:53:13.776Z,95474.00
2024-05-09T10:54:13.782Z,95475.00
2024-05-09T10:55:13.943Z,95469.00
2024-05-09T10:56:13.923Z,95477.00
2024-05-09T10:57:13.925Z,95467.00
2024-05-09T10:58:14.077Z,95466.00
2024-05-09T10:59:14.046Z,95465.00
2024-05-09T11:00:19.482Z,95464.00
2024-05-09T11:01:15.182Z,95464.00
2024-05-09T11:02:14.214Z,95459.00
2024-05-09T11:03:14.164Z,95461.00
2024-05-09T11:04:14.434Z,95461.00
2024-05-09T11:05:14.311Z,95458.00
2024-05-09T11:06:14.064Z,95457.00
2024-05-09T11:07:14.088Z,95457.00
2024-05-09T11:08:14.089Z,95451.00
2024-05-09T11:09:14.082Z,95455.00
2024-05-09T11:10:17.921Z,95450.00
2024-05-09T11:11:15.164Z,95449.00
2024-05-09T11:12:14.223Z,95447.00
2024-05-09T11:13:14.247Z,95443.00
2024-05-09T11:14:14.115Z,95451.00
2024-05-09T11:15:14.121Z,95444.00
2024-05-09T11:16:14.194Z,95441.00
2024-05-09T11:17:14.164Z,95449.00
2024-05-09T11:18:14.269Z,95446.00
2024-05-09T11:19:14.319Z,95447.00
2024-05-09T11:20:22.577Z,95445.00
2024-05-09T11:21:15.099Z,95442.00
2024-05-09T11:22:14.297Z,95440.00
2024-05-09T11:23:14.150Z,95443.00
2024-05-09T11:24:14.166Z,95443.00
2024-05-09T11:25:14.235Z,95433.00
2024-05-09T11:26:14.112Z,95436.00
2024-05-09T11:27:14.105Z,95437.00
2024-05-09T11:28:14.122Z,95433.00
2024-05-09T11:29:17.058Z,95427.00
2024-05-09T11:30:20.887Z,95430.00
2024-05-09T11:31:15.227Z,95436.00
2024-05-09T11:32:14.209Z,95433.00
2024-05-09T11:33:14.268Z,95431.00
2024-05-09T11:34:14.126Z,95429.00
2024-05-09T11:35:14.158Z,95426.00
2024-05-09T11:36:14.142Z,95425.00
2024-05-09T11:37:14.263Z,95428.00
2024-05-09T11:38:14.193Z,95423.00
2024-05-09T11:39:14.149Z,95425.00
2024-05-09T11:40:21.337Z,95424.00
2024-05-09T11:41:15.120Z,95421.00
2024-05-09T11:42:14.157Z,95417.00
2024-05-09T11:43:14.206Z,95424.00
2024-05-09T11:44:14.181Z,95415.00
2024-05-09T11:45:14.159Z,95407.00
2024-05-09T11:46:14.467Z,95409.00
2024-05-09T11:47:14.406Z,95407.00
2024-05-09T11:48:14.245Z,95416.00
2024-05-09T11:49:14.331Z,95409.00
2024-05-09T11:50:22.471Z,95405.00
2024-05-09T11:51:15.159Z,95413.00
2024-05-09T11:52:14.206Z,95411.00
2024-05-09T11:53:14.171Z,95417.00